Lubov IVanova — UXEL — position and weather

sailwx.info

Track history (hours):
 
Tides and Currents Weather Stations Pressure Air Temp Water Temp Dewpoint Dewpoint Depression Visibility Wind Speed Wind Dir Waves Ship Positions

Lubov IVanova

Last reported at 2018-Jun-23 17:24 UTC. Time now 2018-Jun-23 17:29 UTC.
Position N 46°59' E 031°60'.

Length 17 m.

Type: Passenger vessel. MMSI: 272160100.

Date/timePositionNaut miles runAvg speedWind from/ knotsBaromVisibWave heightAir tempDewpointWater temp
2018-Jun-23 17:24N 46°59' E 031°60'0 0.0
2018-Jun-23 17:00N 46°59' E 031°60'2 3.3
2018-Jun-23 16:30N 46°59' E 031°57'2 3.2
2018-Jun-23 15:58N 46°59' E 031°60'0 0.0
2018-Jun-23 15:28N 46°59' E 031°60'0 0.0
2018-Jun-23 14:58N 46°59' E 031°60'0 0.0
2018-Jun-23 14:28N 46°59' E 031°60'2 4.1
2018-Jun-23 14:00N 46°58' E 031°57'2 3.6
2018-Jun-23 13:30N 46°59' E 031°59'0 0.0
2018-Jun-22 20:11N 46°59' E 031°60'1 3.8
2018-Jun-22 20:00N 46°59' E 031°59'1 1.0
2018-Jun-22 19:30N 46°59' E 031°58'1 1.9
2018-Jun-22 18:59N 46°59' E 031°59'2 3.7
2018-Jun-22 18:31N 46°59' E 031°57'2 3.5
2018-Jun-22 17:59N 46°59' E 031°60'0 0.0
2018-Jun-22 17:29N 46°59' E 031°60'0 0.5
2018-Jun-22 17:00N 46°59' E 031°59'1 2.3
2018-Jun-22 16:29N 46°59' E 031°58'1 2.7
2018-Jun-22 15:59N 46°59' E 031°60'0 0.0
2018-Jun-22 15:29N 46°59' E 031°60'1 1.5
2018-Jun-22 15:00N 46°59' E 031°59'1 1.2
2018-Jun-22 14:30N 46°59' E 031°58'  
2018-Jun-17 18:45N 46°59' E 031°60'0 0.0
2018-Jun-17 18:30N 46°59' E 031°60'0 0.7
2018-Jun-17 18:00N 46°59' E 031°59'1 2.3
2018-Jun-17 17:30N 46°59' E 031°57'1 2.7
2018-Jun-17 16:58N 46°59' E 031°60'0 0.0
2018-Jun-17 16:28N 46°59' E 031°60'0 0.6
2018-Jun-17 16:00N 46°59' E 031°59'  
Track history (hours):
 
Tides and Currents Weather Stations Pressure Air Temp Water Temp Dewpoint Dewpoint Depression Visibility Wind Speed Wind Dir Waves Ship Positions

Lubov IVanova

Last reported at 2018-Jun-23 17:24 UTC. Time now 2018-Jun-23 17:29 UTC.
Position N 46°59' E 031°60'.

Length 17 m.

Type: Passenger vessel. MMSI: 272160100.

Date/timePositionNaut miles runAvg speedWind from/ knotsBaromVisibWave heightAir tempDewpointWater temp
2018-Jun-23 17:24N 46°59' E 031°60'0 0.0
2018-Jun-23 17:00N 46°59' E 031°60'2 3.3
2018-Jun-23 16:30N 46°59' E 031°57'2 3.2
2018-Jun-23 15:58N 46°59' E 031°60'0 0.0
2018-Jun-23 15:28N 46°59' E 031°60'0 0.0
2018-Jun-23 14:58N 46°59' E 031°60'0 0.0
2018-Jun-23 14:28N 46°59' E 031°60'2 4.1
2018-Jun-23 14:00N 46°58' E 031°57'2 3.6
2018-Jun-23 13:30N 46°59' E 031°59'0 0.0
2018-Jun-22 20:11N 46°59' E 031°60'1 3.8
2018-Jun-22 20:00N 46°59' E 031°59'1 1.0
2018-Jun-22 19:30N 46°59' E 031°58'1 1.9
2018-Jun-22 18:59N 46°59' E 031°59'2 3.7
2018-Jun-22 18:31N 46°59' E 031°57'2 3.5
2018-Jun-22 17:59N 46°59' E 031°60'0 0.0
2018-Jun-22 17:29N 46°59' E 031°60'0 0.5
2018-Jun-22 17:00N 46°59' E 031°59'1 2.3
2018-Jun-22 16:29N 46°59' E 031°58'1 2.7
2018-Jun-22 15:59N 46°59' E 031°60'0 0.0
2018-Jun-22 15:29N 46°59' E 031°60'1 1.5
2018-Jun-22 15:00N 46°59' E 031°59'1 1.2
2018-Jun-22 14:30N 46°59' E 031°58'  
2018-Jun-17 18:45N 46°59' E 031°60'0 0.0
2018-Jun-17 18:30N 46°59' E 031°60'0 0.7
2018-Jun-17 18:00N 46°59' E 031°59'1 2.3
2018-Jun-17 17:30N 46°59' E 031°57'1 2.7
2018-Jun-17 16:58N 46°59' E 031°60'0 0.0
2018-Jun-17 16:28N 46°59' E 031°60'0 0.6
2018-Jun-17 16:00N 46°59' E 031°59'  

Dump ship's entire track history